sensor_id;sensor_type;location;lat;lon;timestamp;temperature;humidity
13148;DHT22;6639;50.956;4.242;2022-08-03T00:01:34;29.90;88.90
13148;DHT22;6639;50.956;4.242;2022-08-03T00:04:02;29.90;88.80
13148;DHT22;6639;50.956;4.242;2022-08-03T00:06:29;29.90;88.80
13148;DHT22;6639;50.956;4.242;2022-08-03T00:08:56;29.80;88.90
13148;DHT22;6639;50.956;4.242;2022-08-03T00:11:23;29.70;89.00
13148;DHT22;6639;50.956;4.242;2022-08-03T00:13:51;29.70;89.60
13148;DHT22;6639;50.956;4.242;2022-08-03T00:16:19;29.60;89.70
13148;DHT22;6639;50.956;4.242;2022-08-03T00:18:46;29.50;89.90
13148;DHT22;6639;50.956;4.242;2022-08-03T00:21:13;29.30;90.40
13148;DHT22;6639;50.956;4.242;2022-08-03T00:23:40;29.20;90.10
13148;DHT22;6639;50.956;4.242;2022-08-03T00:26:06;29.10;90.20
13148;DHT22;6639;50.956;4.242;2022-08-03T00:28:33;29.00;90.40
13148;DHT22;6639;50.956;4.242;2022-08-03T00:31:00;29.00;90.20
13148;DHT22;6639;50.956;4.242;2022-08-03T00:33:28;29.10;90.20
13148;DHT22;6639;50.956;4.242;2022-08-03T00:35:55;29.20;90.30
13148;DHT22;6639;50.956;4.242;2022-08-03T00:38:22;29.10;90.30
13148;DHT22;6639;50.956;4.242;2022-08-03T00:40:49;29.00;90.50
13148;DHT22;6639;50.956;4.242;2022-08-03T00:43:16;28.90;90.60
13148;DHT22;6639;50.956;4.242;2022-08-03T00:45:43;28.80;90.70
13148;DHT22;6639;50.956;4.242;2022-08-03T00:48:11;28.80;90.90
13148;DHT22;6639;50.956;4.242;2022-08-03T00:50:41;28.70;90.80
13148;DHT22;6639;50.956;4.242;2022-08-03T00:53:09;28.80;90.90
13148;DHT22;6639;50.956;4.242;2022-08-03T00:55:38;28.80;90.90
13148;DHT22;6639;50.956;4.242;2022-08-03T00:58:06;28.80;90.90
13148;DHT22;6639;50.956;4.242;2022-08-03T01:00:35;28.70;90.80
13148;DHT22;6639;50.956;4.242;2022-08-03T01:03:03;28.80;90.80
13148;DHT22;6639;50.956;4.242;2022-08-03T01:05:33;28.90;90.80
13148;DHT22;6639;50.956;4.242;2022-08-03T01:08:05;28.90;90.80
13148;DHT22;6639;50.956;4.242;2022-08-03T01:10:38;28.90;90.80
13148;DHT22;6639;50.956;4.242;2022-08-03T01:13:19;28.80;90.80
13148;DHT22;6639;50.956;4.242;2022-08-03T01:15:52;28.80;90.80
13148;DHT22;6639;50.956;4.242;2022-08-03T01:18:27;28.70;91.00
13148;DHT22;6639;50.956;4.242;2022-08-03T01:20:59;28.50;91.20
13148;DHT22;6639;50.956;4.242;2022-08-03T01:27:02;28.50;91.30
13148;DHT22;6639;50.956;4.242;2022-08-03T01:29:49;28.40;91.50
13148;DHT22;6639;50.956;4.242;2022-08-03T01:32:20;28.30;91.70
13148;DHT22;6639;50.956;4.242;2022-08-03T01:35:01;28.20;91.70
13148;DHT22;6639;50.956;4.242;2022-08-03T01:37:34;28.00;92.00
13148;DHT22;6639;50.956;4.242;2022-08-03T01:40:03;28.10;92.20
13148;DHT22;6639;50.956;4.242;2022-08-03T01:42:31;28.20;92.10
13148;DHT22;6639;50.956;4.242;2022-08-03T01:45:01;28.30;91.90
13148;DHT22;6639;50.956;4.242;2022-08-03T01:47:29;28.40;92.00
13148;DHT22;6639;50.956;4.242;2022-08-03T01:49:59;28.40;92.00
13148;DHT22;6639;50.956;4.242;2022-08-03T01:52:27;28.40;91.90
13148;DHT22;6639;50.956;4.242;2022-08-03T01:54:56;28.30;92.10
13148;DHT22;6639;50.956;4.242;2022-08-03T01:57:24;28.20;92.00
13148;DHT22;6639;50.956;4.242;2022-08-03T01:59:55;28.40;92.00
13148;DHT22;6639;50.956;4.242;2022-08-03T02:02:24;28.20;92.20
13148;DHT22;6639;50.956;4.242;2022-08-03T02:04:54;28.20;92.30
13148;DHT22;6639;50.956;4.242;2022-08-03T02:07:22;28.30;92.10
13148;DHT22;6639;50.956;4.242;2022-08-03T02:09:51;28.50;91.90
13148;DHT22;6639;50.956;4.242;2022-08-03T02:12:21;28.40;91.90
13148;DHT22;6639;50.956;4.242;2022-08-03T02:14:49;28.50;92.00
13148;DHT22;6639;50.956;4.242;2022-08-03T02:17:17;28.60;91.90
13148;DHT22;6639;50.956;4.242;2022-08-03T02:19:46;28.50;91.90
13148;DHT22;6639;50.956;4.242;2022-08-03T02:22:14;28.40;92.00
13148;DHT22;6639;50.956;4.242;2022-08-03T02:24:41;28.10;92.20
13148;DHT22;6639;50.956;4.242;2022-08-03T02:27:13;28.10;92.30
13148;DHT22;6639;50.956;4.242;2022-08-03T02:29:45;28.10;92.40
13148;DHT22;6639;50.956;4.242;2022-08-03T02:35:02;28.10;92.50
13148;DHT22;6639;50.956;4.242;2022-08-03T02:37:33;28.00;92.70
13148;DHT22;6639;50.956;4.242;2022-08-03T02:40:03;28.00;92.90
13148;DHT22;6639;50.956;4.242;2022-08-03T02:42:32;27.70;92.90
13148;DHT22;6639;50.956;4.242;2022-08-03T02:45:03;27.80;93.10
13148;DHT22;6639;50.956;4.242;2022-08-03T02:47:31;27.80;93.10
13148;DHT22;6639;50.956;4.242;2022-08-03T02:50:02;27.70;93.00
13148;DHT22;6639;50.956;4.242;2022-08-03T02:52:29;27.80;92.90
13148;DHT22;6639;50.956;4.242;2022-08-03T02:55:00;27.90;92.70
13148;DHT22;6639;50.956;4.242;2022-08-03T02:57:29;27.90;92.90
13148;DHT22;6639;50.956;4.242;2022-08-03T02:59:57;27.90;93.10
13148;DHT22;6639;50.956;4.242;2022-08-03T03:02:25;27.70;93.30
13148;DHT22;6639;50.956;4.242;2022-08-03T03:04:55;27.60;93.40
13148;DHT22;6639;50.956;4.242;2022-08-03T03:07:23;27.60;93.10
13148;DHT22;6639;50.956;4.242;2022-08-03T03:09:51;27.60;93.20
13148;DHT22;6639;50.956;4.242;2022-08-03T03:12:19;27.60;93.40
13148;DHT22;6639;50.956;4.242;2022-08-03T03:14:47;27.60;93.40
13148;DHT22;6639;50.956;4.242;2022-08-03T03:17:14;27.80;93.30
13148;DHT22;6639;50.956;4.242;2022-08-03T03:19:43;27.80;93.10
13148;DHT22;6639;50.956;4.242;2022-08-03T03:22:11;27.90;93.00
13148;DHT22;6639;50.956;4.242;2022-08-03T03:24:40;27.80;93.40
13148;DHT22;6639;50.956;4.242;2022-08-03T03:27:08;27.70;93.30
13148;DHT22;6639;50.956;4.242;2022-08-03T03:29:36;27.50;93.70
13148;DHT22;6639;50.956;4.242;2022-08-03T03:32:04;27.40;94.10
13148;DHT22;6639;50.956;4.242;2022-08-03T03:34:32;27.30;94.30
13148;DHT22;6639;50.956;4.242;2022-08-03T03:36:59;27.20;94.50
13148;DHT22;6639;50.956;4.242;2022-08-03T03:39:26;27.10;94.70
13148;DHT22;6639;50.956;4.242;2022-08-03T03:41:55;27.00;94.90
13148;DHT22;6639;50.956;4.242;2022-08-03T03:44:25;27.00;95.00
13148;DHT22;6639;50.956;4.242;2022-08-03T03:46:53;27.00;95.00
13148;DHT22;6639;50.956;4.242;2022-08-03T03:49:20;27.10;94.80
13148;DHT22;6639;50.956;4.242;2022-08-03T03:51:47;27.00;94.80
13148;DHT22;6639;50.956;4.242;2022-08-03T03:54:14;27.00;94.80
13148;DHT22;6639;50.956;4.242;2022-08-03T03:56:41;26.90;94.90
13148;DHT22;6639;50.956;4.242;2022-08-03T03:59:09;27.00;95.10
13148;DHT22;6639;50.956;4.242;2022-08-03T04:01:37;27.00;94.80
13148;DHT22;6639;50.956;4.242;2022-08-03T04:04:04;27.00;94.70
13148;DHT22;6639;50.956;4.242;2022-08-03T04:06:45;27.00;94.40
13148;DHT22;6639;50.956;4.242;2022-08-03T04:09:30;26.90;95.10
13148;DHT22;6639;50.956;4.242;2022-08-03T04:12:16;26.80;95.50
13148;DHT22;6639;50.956;4.242;2022-08-03T04:14:48;26.70;95.00
13148;DHT22;6639;50.956;4.242;2022-08-03T04:17:16;26.80;95.20
13148;DHT22;6639;50.956;4.242;2022-08-03T04:19:47;26.60;95.20
13148;DHT22;6639;50.956;4.242;2022-08-03T04:22:18;26.70;95.60
13148;DHT22;6639;50.956;4.242;2022-08-03T04:24:49;26.90;95.60
13148;DHT22;6639;50.956;4.242;2022-08-03T04:27:19;26.90;95.40
13148;DHT22;6639;50.956;4.242;2022-08-03T04:29:51;27.00;95.40
13148;DHT22;6639;50.956;4.242;2022-08-03T04:32:19;27.00;95.40
13148;DHT22;6639;50.956;4.242;2022-08-03T04:34:50;27.10;95.40
13148;DHT22;6639;50.956;4.242;2022-08-03T04:37:23;27.10;95.40
13148;DHT22;6639;50.956;4.242;2022-08-03T04:39:52;27.10;95.40
13148;DHT22;6639;50.956;4.242;2022-08-03T04:42:20;27.00;95.50
13148;DHT22;6639;50.956;4.242;2022-08-03T04:44:49;27.00;95.50
13148;DHT22;6639;50.956;4.242;2022-08-03T04:47:17;27.00;95.60
13148;DHT22;6639;50.956;4.242;2022-08-03T04:49:45;27.00;95.60
13148;DHT22;6639;50.956;4.242;2022-08-03T04:52:12;27.00;95.70
13148;DHT22;6639;50.956;4.242;2022-08-03T04:54:40;26.90;95.60
13148;DHT22;6639;50.956;4.242;2022-08-03T04:57:07;26.90;95.70
13148;DHT22;6639;50.956;4.242;2022-08-03T04:59:33;27.00;95.70
13148;DHT22;6639;50.956;4.242;2022-08-03T05:02:02;27.10;95.40
13148;DHT22;6639;50.956;4.242;2022-08-03T05:04:29;27.10;95.90
13148;DHT22;6639;50.956;4.242;2022-08-03T05:06:56;27.00;96.10
13148;DHT22;6639;50.956;4.242;2022-08-03T05:09:23;27.10;96.00
13148;DHT22;6639;50.956;4.242;2022-08-03T05:11:50;27.00;95.90
13148;DHT22;6639;50.956;4.242;2022-08-03T05:14:16;27.10;95.90
13148;DHT22;6639;50.956;4.242;2022-08-03T05:16:43;27.20;96.00
13148;DHT22;6639;50.956;4.242;2022-08-03T05:19:11;27.20;95.80
13148;DHT22;6639;50.956;4.242;2022-08-03T05:21:38;27.10;96.10
13148;DHT22;6639;50.956;4.242;2022-08-03T05:24:05;27.10;96.40
13148;DHT22;6639;50.956;4.242;2022-08-03T05:26:32;27.20;96.70
13148;DHT22;6639;50.956;4.242;2022-08-03T05:28:59;27.40;96.80
13148;DHT22;6639;50.956;4.242;2022-08-03T05:31:26;27.70;96.90
13148;DHT22;6639;50.956;4.242;2022-08-03T05:33:53;27.90;96.50
13148;DHT22;6639;50.956;4.242;2022-08-03T05:36:21;28.10;95.70
13148;DHT22;6639;50.956;4.242;2022-08-03T05:38:48;28.40;95.70
13148;DHT22;6639;50.956;4.242;2022-08-03T05:41:15;28.70;95.30
13148;DHT22;6639;50.956;4.242;2022-08-03T05:43:42;28.90;94.90
13148;DHT22;6639;50.956;4.242;2022-08-03T05:46:09;28.80;94.20
13148;DHT22;6639;50.956;4.242;2022-08-03T05:48:36;29.00;93.80
13148;DHT22;6639;50.956;4.242;2022-08-03T05:51:03;29.30;94.00
13148;DHT22;6639;50.956;4.242;2022-08-03T05:53:34;29.40;93.50
13148;DHT22;6639;50.956;4.242;2022-08-03T05:56:00;29.90;93.20
13148;DHT22;6639;50.956;4.242;2022-08-03T05:58:27;30.00;93.20
13148;DHT22;6639;50.956;4.242;2022-08-03T06:00:54;30.20;92.60
13148;DHT22;6639;50.956;4.242;2022-08-03T06:03:21;30.30;92.70
13148;DHT22;6639;50.956;4.242;2022-08-03T06:05:48;30.40;92.70
13148;DHT22;6639;50.956;4.242;2022-08-03T06:08:15;30.80;91.90
13148;DHT22;6639;50.956;4.242;2022-08-03T06:10:43;30.80;91.60
13148;DHT22;6639;50.956;4.242;2022-08-03T06:13:10;30.80;91.90
13148;DHT22;6639;50.956;4.242;2022-08-03T06:15:37;30.70;91.90
13148;DHT22;6639;50.956;4.242;2022-08-03T06:18:04;30.50;91.70
13148;DHT22;6639;50.956;4.242;2022-08-03T06:20:32;30.50;92.10
13148;DHT22;6639;50.956;4.242;2022-08-03T06:22:59;30.40;91.80
13148;DHT22;6639;50.956;4.242;2022-08-03T06:25:27;29.80;92.50
13148;DHT22;6639;50.956;4.242;2022-08-03T06:27:56;28.80;93.30
13148;DHT22;6639;50.956;4.242;2022-08-03T06:30:23;29.00;94.00
13148;DHT22;6639;50.956;4.242;2022-08-03T06:32:50;29.30;93.50
13148;DHT22;6639;50.956;4.242;2022-08-03T06:35:17;29.00;93.50
13148;DHT22;6639;50.956;4.242;2022-08-03T06:37:45;29.20;93.60
13148;DHT22;6639;50.956;4.242;2022-08-03T06:40:14;29.30;93.40
13148;DHT22;6639;50.956;4.242;2022-08-03T06:42:41;29.70;93.20
13148;DHT22;6639;50.956;4.242;2022-08-03T06:45:11;29.80;92.90
13148;DHT22;6639;50.956;4.242;2022-08-03T06:47:38;29.70;92.90
13148;DHT22;6639;50.956;4.242;2022-08-03T06:50:06;29.90;93.00
13148;DHT22;6639;50.956;4.242;2022-08-03T06:52:35;29.80;92.60
13148;DHT22;6639;50.956;4.242;2022-08-03T06:55:02;29.90;92.80
13148;DHT22;6639;50.956;4.242;2022-08-03T06:57:29;30.20;92.80
13148;DHT22;6639;50.956;4.242;2022-08-03T06:59:56;30.30;92.50
13148;DHT22;6639;50.956;4.242;2022-08-03T07:02:27;30.60;92.40
13148;DHT22;6639;50.956;4.242;2022-08-03T07:04:55;31.00;92.30
13148;DHT22;6639;50.956;4.242;2022-08-03T07:07:22;31.30;91.80
13148;DHT22;6639;50.956;4.242;2022-08-03T07:09:49;32.00;91.40
13148;DHT22;6639;50.956;4.242;2022-08-03T07:12:16;32.00;90.70
13148;DHT22;6639;50.956;4.242;2022-08-03T07:14:43;32.00;90.40
13148;DHT22;6639;50.956;4.242;2022-08-03T07:17:10;31.60;90.50
13148;DHT22;6639;50.956;4.242;2022-08-03T07:19:38;31.60;90.90
13148;DHT22;6639;50.956;4.242;2022-08-03T07:22:05;32.00;90.70
13148;DHT22;6639;50.956;4.242;2022-08-03T07:24:33;31.70;90.50
13148;DHT22;6639;50.956;4.242;2022-08-03T07:27:00;31.70;90.80
13148;DHT22;6639;50.956;4.242;2022-08-03T07:29:27;31.80;90.40
13148;DHT22;6639;50.956;4.242;2022-08-03T07:31:54;31.70;90.50
13148;DHT22;6639;50.956;4.242;2022-08-03T07:34:21;31.70;90.60
13148;DHT22;6639;50.956;4.242;2022-08-03T07:36:49;32.30;90.50
13148;DHT22;6639;50.956;4.242;2022-08-03T07:39:16;32.70;90.20
13148;DHT22;6639;50.956;4.242;2022-08-03T07:41:43;32.90;89.60
13148;DHT22;6639;50.956;4.242;2022-08-03T07:44:10;33.20;88.40
13148;DHT22;6639;50.956;4.242;2022-08-03T07:46:37;33.60;88.10
13148;DHT22;6639;50.956;4.242;2022-08-03T07:49:04;33.90;87.20
13148;DHT22;6639;50.956;4.242;2022-08-03T07:51:30;34.20;86.40
13148;DHT22;6639;50.956;4.242;2022-08-03T07:53:59;34.10;85.60
13148;DHT22;6639;50.956;4.242;2022-08-03T07:56:26;34.20;84.90
13148;DHT22;6639;50.956;4.242;2022-08-03T07:58:53;34.40;84.90
13148;DHT22;6639;50.956;4.242;2022-08-03T08:01:21;34.60;83.80
13148;DHT22;6639;50.956;4.242;2022-08-03T08:03:48;34.60;83.90
13148;DHT22;6639;50.956;4.242;2022-08-03T08:06:16;34.80;83.30
13148;DHT22;6639;50.956;4.242;2022-08-03T08:08:43;34.60;84.10
13148;DHT22;6639;50.956;4.242;2022-08-03T08:11:12;34.90;83.00
13148;DHT22;6639;50.956;4.242;2022-08-03T08:13:39;35.00;82.70
13148;DHT22;6639;50.956;4.242;2022-08-03T08:16:06;34.50;83.10
13148;DHT22;6639;50.956;4.242;2022-08-03T08:18:33;34.70;83.20
13148;DHT22;6639;50.956;4.242;2022-08-03T08:20:59;34.70;83.50
13148;DHT22;6639;50.956;4.242;2022-08-03T08:23:28;35.00;82.80
13148;DHT22;6639;50.956;4.242;2022-08-03T08:25:55;34.30;83.00
13148;DHT22;6639;50.956;4.242;2022-08-03T08:28:23;34.30;82.50
13148;DHT22;6639;50.956;4.242;2022-08-03T08:30:50;34.60;83.10
13148;DHT22;6639;50.956;4.242;2022-08-03T08:33:17;35.00;82.50
13148;DHT22;6639;50.956;4.242;2022-08-03T08:35:44;35.30;82.20
13148;DHT22;6639;50.956;4.242;2022-08-03T08:38:11;35.50;81.20
13148;DHT22;6639;50.956;4.242;2022-08-03T08:40:37;35.30;80.70
13148;DHT22;6639;50.956;4.242;2022-08-03T08:43:04;35.20;80.60
13148;DHT22;6639;50.956;4.242;2022-08-03T08:45:34;35.20;81.20
13148;DHT22;6639;50.956;4.242;2022-08-03T08:48:02;35.10;80.70
13148;DHT22;6639;50.956;4.242;2022-08-03T08:50:29;34.80;80.80
13148;DHT22;6639;50.956;4.242;2022-08-03T08:53:00;34.80;82.10
13148;DHT22;6639;50.956;4.242;2022-08-03T08:55:28;34.80;81.50
13148;DHT22;6639;50.956;4.242;2022-08-03T08:58:00;35.00;80.40
13148;DHT22;6639;50.956;4.242;2022-08-03T09:00:27;35.30;80.60
13148;DHT22;6639;50.956;4.242;2022-08-03T09:02:59;36.10;80.10
13148;DHT22;6639;50.956;4.242;2022-08-03T09:05:27;36.60;79.00
13148;DHT22;6639;50.956;4.242;2022-08-03T09:07:57;36.80;78.70
13148;DHT22;6639;50.956;4.242;2022-08-03T09:10:24;36.50;78.20
13148;DHT22;6639;50.956;4.242;2022-08-03T09:12:52;36.70;77.90
13148;DHT22;6639;50.956;4.242;2022-08-03T09:15:21;36.70;77.30
13148;DHT22;6639;50.956;4.242;2022-08-03T09:17:49;37.10;77.60
13148;DHT22;6639;50.956;4.242;2022-08-03T09:20:18;36.40;77.50
13148;DHT22;6639;50.956;4.242;2022-08-03T09:22:51;36.50;76.80
13148;DHT22;6639;50.956;4.242;2022-08-03T09:25:19;36.40;76.40
13148;DHT22;6639;50.956;4.242;2022-08-03T09:27:51;36.20;78.10
13148;DHT22;6639;50.956;4.242;2022-08-03T09:30:18;36.40;76.90
13148;DHT22;6639;50.956;4.242;2022-08-03T09:32:46;36.20;76.10
13148;DHT22;6639;50.956;4.242;2022-08-03T09:35:13;36.10;76.60
13148;DHT22;6639;50.956;4.242;2022-08-03T09:37:42;36.10;77.20
13148;DHT22;6639;50.956;4.242;2022-08-03T09:40:09;36.50;76.10
13148;DHT22;6639;50.956;4.242;2022-08-03T09:42:36;36.20;75.40
13148;DHT22;6639;50.956;4.242;2022-08-03T09:45:04;36.20;76.00
13148;DHT22;6639;50.956;4.242;2022-08-03T09:47:33;36.60;75.40
13148;DHT22;6639;50.956;4.242;2022-08-03T09:50:02;36.90;75.30
13148;DHT22;6639;50.956;4.242;2022-08-03T09:52:31;36.90;74.80
13148;DHT22;6639;50.956;4.242;2022-08-03T09:55:00;36.90;74.30
13148;DHT22;6639;50.956;4.242;2022-08-03T09:57:27;37.00;75.50
13148;DHT22;6639;50.956;4.242;2022-08-03T10:00:07;36.90;73.80
13148;DHT22;6639;50.956;4.242;2022-08-03T10:02:36;36.80;74.20
13148;DHT22;6639;50.956;4.242;2022-08-03T10:05:04;36.90;74.80
13148;DHT22;6639;50.956;4.242;2022-08-03T10:07:41;37.10;74.70
13148;DHT22;6639;50.956;4.242;2022-08-03T10:10:10;36.90;73.90
13148;DHT22;6639;50.956;4.242;2022-08-03T10:12:39;37.00;74.40
13148;DHT22;6639;50.956;4.242;2022-08-03T10:15:07;36.90;74.30
13148;DHT22;6639;50.956;4.242;2022-08-03T10:17:35;36.90;74.90
13148;DHT22;6639;50.956;4.242;2022-08-03T10:20:03;36.80;74.70
13148;DHT22;6639;50.956;4.242;2022-08-03T10:22:33;37.50;74.60
13148;DHT22;6639;50.956;4.242;2022-08-03T10:25:03;37.80;73.80
13148;DHT22;6639;50.956;4.242;2022-08-03T10:27:37;38.00;74.00
13148;DHT22;6639;50.956;4.242;2022-08-03T10:30:06;38.20;73.40
13148;DHT22;6639;50.956;4.242;2022-08-03T10:32:34;38.40;74.00
13148;DHT22;6639;50.956;4.242;2022-08-03T10:35:06;38.00;72.70
13148;DHT22;6639;50.956;4.242;2022-08-03T10:37:39;38.00;72.50
13148;DHT22;6639;50.956;4.242;2022-08-03T10:40:07;38.00;72.40
13148;DHT22;6639;50.956;4.242;2022-08-03T10:42:37;37.70;73.00
13148;DHT22;6639;50.956;4.242;2022-08-03T10:45:06;37.20;73.20
13148;DHT22;6639;50.956;4.242;2022-08-03T10:47:35;37.80;73.20
13148;DHT22;6639;50.956;4.242;2022-08-03T10:50:03;37.80;73.30
13148;DHT22;6639;50.956;4.242;2022-08-03T10:52:31;37.70;72.60
13148;DHT22;6639;50.956;4.242;2022-08-03T10:54:58;37.20;73.40
13148;DHT22;6639;50.956;4.242;2022-08-03T10:57:50;37.10;74.50
13148;DHT22;6639;50.956;4.242;2022-08-03T11:00:23;37.50;73.80
13148;DHT22;6639;50.956;4.242;2022-08-03T11:03:02;37.50;73.80
13148;DHT22;6639;50.956;4.242;2022-08-03T11:05:31;37.80;73.80
13148;DHT22;6639;50.956;4.242;2022-08-03T11:08:21;38.00;73.30
13148;DHT22;6639;50.956;4.242;2022-08-03T11:10:49;38.30;72.70
13148;DHT22;6639;50.956;4.242;2022-08-03T11:13:21;38.50;72.20
13148;DHT22;6639;50.956;4.242;2022-08-03T11:15:49;38.60;72.00
13148;DHT22;6639;50.956;4.242;2022-08-03T11:18:17;38.40;72.40
13148;DHT22;6639;50.956;4.242;2022-08-03T11:20:46;38.00;72.10
13148;DHT22;6639;50.956;4.242;2022-08-03T11:23:14;38.10;71.70
13148;DHT22;6639;50.956;4.242;2022-08-03T11:26:16;38.40;72.70
13148;DHT22;6639;50.956;4.242;2022-08-03T11:28:45;38.40;71.10
13148;DHT22;6639;50.956;4.242;2022-08-03T11:34:21;38.40;71.40
13148;DHT22;6639;50.956;4.242;2022-08-03T11:37:20;38.50;70.90
13148;DHT22;6639;50.956;4.242;2022-08-03T11:39:51;38.40;71.40
13148;DHT22;6639;50.956;4.242;2022-08-03T11:42:41;38.10;72.10
13148;DHT22;6639;50.956;4.242;2022-08-03T11:45:14;38.00;71.10
13148;DHT22;6639;50.956;4.242;2022-08-03T11:47:41;38.20;72.20
13148;DHT22;6639;50.956;4.242;2022-08-03T11:50:09;38.00;71.40
13148;DHT22;6639;50.956;4.242;2022-08-03T11:52:39;38.40;71.10
13148;DHT22;6639;50.956;4.242;2022-08-03T11:55:15;38.30;71.80
13148;DHT22;6639;50.956;4.242;2022-08-03T11:57:43;38.50;70.40
13148;DHT22;6639;50.956;4.242;2022-08-03T12:00:23;38.10;70.30
13148;DHT22;6639;50.956;4.242;2022-08-03T12:03:03;38.20;70.30
13148;DHT22;6639;50.956;4.242;2022-08-03T12:05:38;38.20;69.60
13148;DHT22;6639;50.956;4.242;2022-08-03T12:08:07;37.90;69.70
13148;DHT22;6639;50.956;4.242;2022-08-03T12:10:34;38.00;70.80
13148;DHT22;6639;50.956;4.242;2022-08-03T12:13:03;37.90;69.60
13148;DHT22;6639;50.956;4.242;2022-08-03T12:15:35;38.00;70.40
13148;DHT22;6639;50.956;4.242;2022-08-03T12:18:11;38.20;70.30
13148;DHT22;6639;50.956;4.242;2022-08-03T12:20:38;38.30;69.80
13148;DHT22;6639;50.956;4.242;2022-08-03T12:23:06;38.60;69.50
13148;DHT22;6639;50.956;4.242;2022-08-03T12:25:34;38.80;69.10
13148;DHT22;6639;50.956;4.242;2022-08-03T12:28:15;38.40;70.20
13148;DHT22;6639;50.956;4.242;2022-08-03T12:30:46;38.10;68.90
13148;DHT22;6639;50.956;4.242;2022-08-03T12:33:14;37.90;69.20
13148;DHT22;6639;50.956;4.242;2022-08-03T12:35:41;37.70;70.10
13148;DHT22;6639;50.956;4.242;2022-08-03T12:38:09;37.20;70.40
13148;DHT22;6639;50.956;4.242;2022-08-03T12:40:37;37.30;70.40
13148;DHT22;6639;50.956;4.242;2022-08-03T12:43:10;37.00;70.90
13148;DHT22;6639;50.956;4.242;2022-08-03T12:45:38;36.80;70.90
13148;DHT22;6639;50.956;4.242;2022-08-03T12:48:08;37.10;71.20
13148;DHT22;6639;50.956;4.242;2022-08-03T12:50:37;37.50;70.00
13148;DHT22;6639;50.956;4.242;2022-08-03T12:53:06;37.80;69.60
13148;DHT22;6639;50.956;4.242;2022-08-03T12:55:34;37.90;68.20
13148;DHT22;6639;50.956;4.242;2022-08-03T12:58:02;37.50;67.80
13148;DHT22;6639;50.956;4.242;2022-08-03T13:00:30;37.60;67.70
13148;DHT22;6639;50.956;4.242;2022-08-03T13:03:01;37.30;69.10
13148;DHT22;6639;50.956;4.242;2022-08-03T13:05:30;37.20;69.10
13148;DHT22;6639;50.956;4.242;2022-08-03T13:07:57;36.80;69.30
13148;DHT22;6639;50.956;4.242;2022-08-03T13:10:29;36.90;69.60
13148;DHT22;6639;50.956;4.242;2022-08-03T13:12:57;36.70;69.90
13148;DHT22;6639;50.956;4.242;2022-08-03T13:15:25;36.70;70.10
13148;DHT22;6639;50.956;4.242;2022-08-03T13:17:54;37.10;70.10
13148;DHT22;6639;50.956;4.242;2022-08-03T13:20:22;36.90;69.40
13148;DHT22;6639;50.956;4.242;2022-08-03T13:22:51;36.90;69.60
13148;DHT22;6639;50.956;4.242;2022-08-03T13:25:18;37.40;69.40
13148;DHT22;6639;50.956;4.242;2022-08-03T13:27:46;37.60;68.70
13148;DHT22;6639;50.956;4.242;2022-08-03T13:30:13;38.20;68.20
13148;DHT22;6639;50.956;4.242;2022-08-03T13:32:41;38.50;67.80
13148;DHT22;6639;50.956;4.242;2022-08-03T13:35:08;38.90;67.30
13148;DHT22;6639;50.956;4.242;2022-08-03T13:37:35;38.90;67.70
13148;DHT22;6639;50.956;4.242;2022-08-03T13:40:05;39.30;67.10
13148;DHT22;6639;50.956;4.242;2022-08-03T13:42:34;39.50;66.80
13148;DHT22;6639;50.956;4.242;2022-08-03T13:45:01;39.40;66.30
13148;DHT22;6639;50.956;4.242;2022-08-03T13:47:28;39.20;66.40
13148;DHT22;6639;50.956;4.242;2022-08-03T13:49:55;38.90;66.80
13148;DHT22;6639;50.956;4.242;2022-08-03T13:52:22;39.20;67.40
13148;DHT22;6639;50.956;4.242;2022-08-03T13:54:49;39.40;67.20
13148;DHT22;6639;50.956;4.242;2022-08-03T13:57:17;39.30;66.20
13148;DHT22;6639;50.956;4.242;2022-08-03T13:59:44;38.60;65.90
13148;DHT22;6639;50.956;4.242;2022-08-03T14:02:11;38.20;66.10
13148;DHT22;6639;50.956;4.242;2022-08-03T14:04:38;38.10;66.00
13148;DHT22;6639;50.956;4.242;2022-08-03T14:07:05;38.30;65.90
13148;DHT22;6639;50.956;4.242;2022-08-03T14:09:32;38.60;65.90
13148;DHT22;6639;50.956;4.242;2022-08-03T14:11:59;39.00;66.10
13148;DHT22;6639;50.956;4.242;2022-08-03T14:14:27;39.50;65.00
13148;DHT22;6639;50.956;4.242;2022-08-03T14:16:54;39.70;64.70
13148;DHT22;6639;50.956;4.242;2022-08-03T14:19:21;40.00;64.80
13148;DHT22;6639;50.956;4.242;2022-08-03T14:21:48;39.90;64.00
13148;DHT22;6639;50.956;4.242;2022-08-03T14:24:15;39.80;64.40
13148;DHT22;6639;50.956;4.242;2022-08-03T14:26:42;39.70;64.50
13148;DHT22;6639;50.956;4.242;2022-08-03T14:29:08;39.80;63.90
13148;DHT22;6639;50.956;4.242;2022-08-03T14:31:37;39.50;63.70
13148;DHT22;6639;50.956;4.242;2022-08-03T14:34:04;39.50;63.60
13148;DHT22;6639;50.956;4.242;2022-08-03T14:36:30;39.80;63.80
13148;DHT22;6639;50.956;4.242;2022-08-03T14:38:57;39.70;62.80
13148;DHT22;6639;50.956;4.242;2022-08-03T14:41:24;38.50;62.80
13148;DHT22;6639;50.956;4.242;2022-08-03T14:43:51;37.90;64.70
13148;DHT22;6639;50.956;4.242;2022-08-03T14:46:22;38.00;65.10
13148;DHT22;6639;50.956;4.242;2022-08-03T14:48:50;37.70;64.40
13148;DHT22;6639;50.956;4.242;2022-08-03T14:51:17;37.90;65.50
13148;DHT22;6639;50.956;4.242;2022-08-03T14:53:44;38.40;64.90
13148;DHT22;6639;50.956;4.242;2022-08-03T14:56:11;38.70;65.00
13148;DHT22;6639;50.956;4.242;2022-08-03T14:58:38;38.70;65.50
13148;DHT22;6639;50.956;4.242;2022-08-03T15:01:05;38.70;64.20
13148;DHT22;6639;50.956;4.242;2022-08-03T15:03:33;38.50;64.90
13148;DHT22;6639;50.956;4.242;2022-08-03T15:06:01;37.90;64.10
13148;DHT22;6639;50.956;4.242;2022-08-03T15:08:28;37.60;64.90
13148;DHT22;6639;50.956;4.242;2022-08-03T15:10:55;37.80;65.20
13148;DHT22;6639;50.956;4.242;2022-08-03T15:13:22;38.30;65.90
13148;DHT22;6639;50.956;4.242;2022-08-03T15:15:50;38.40;65.70
13148;DHT22;6639;50.956;4.242;2022-08-03T15:18:17;38.60;64.60
13148;DHT22;6639;50.956;4.242;2022-08-03T15:20:44;39.00;64.40
13148;DHT22;6639;50.956;4.242;2022-08-03T15:23:15;38.70;65.40
13148;DHT22;6639;50.956;4.242;2022-08-03T15:25:43;38.50;63.60
13148;DHT22;6639;50.956;4.242;2022-08-03T15:28:10;38.00;64.20
13148;DHT22;6639;50.956;4.242;2022-08-03T15:30:37;37.60;65.20
13148;DHT22;6639;50.956;4.242;2022-08-03T15:33:04;38.10;65.10
13148;DHT22;6639;50.956;4.242;2022-08-03T15:35:31;38.10;64.90
13148;DHT22;6639;50.956;4.242;2022-08-03T15:37:58;38.30;64.80
13148;DHT22;6639;50.956;4.242;2022-08-03T15:40:26;38.70;64.90
13148;DHT22;6639;50.956;4.242;2022-08-03T15:42:53;39.30;64.30
13148;DHT22;6639;50.956;4.242;2022-08-03T15:45:20;39.30;62.90
13148;DHT22;6639;50.956;4.242;2022-08-03T15:47:47;39.20;61.60
13148;DHT22;6639;50.956;4.242;2022-08-03T15:50:14;38.80;63.10
13148;DHT22;6639;50.956;4.242;2022-08-03T15:52:41;38.80;63.60
13148;DHT22;6639;50.956;4.242;2022-08-03T15:55:09;38.50;63.10
13148;DHT22;6639;50.956;4.242;2022-08-03T15:57:37;38.50;63.00
13148;DHT22;6639;50.956;4.242;2022-08-03T16:00:05;38.40;63.00
13148;DHT22;6639;50.956;4.242;2022-08-03T16:02:34;38.60;63.00
13148;DHT22;6639;50.956;4.242;2022-08-03T16:05:01;38.50;62.80